Albany, Missouri
Current Conditions -  °F | °C
As of 10:23 PM on Sunday 21 Dec 2014 (Local Time) from KLWD Reporting Station
Light Rain Light Rain  
Wind Chill:   Ceiling: 500
Heat Index:   Visibility: 7mi
Dew Point:   Wind: 9mph
Humidity: 93%   Direction: 160°SSE
Pressure: 29.76"   Gusts: 20mph
Location:  40.25°N, 94.33°W
Report Text: KLWD 220423Z AUTO 16008G17KT 7SM -RA OVC005 05/04 A2976 RMK AO2 P0001 T00500039
Loading
Personal Weather Stations






























Interactive Weather Map New forecast layout! Learn more

10-Day Weather Forecast

Advertisements
Track Severe Weather on mobile